Time;durP1;ratioP1;P1;durP2;ratioP2;P2;SDS_P1;SDS_P2;PMS_P1;PMS_P2;Temp;Humidity;BMP_temperature;BMP_pressure;BME280_temperature;BME280_humidity;BME280_pressure;Samples;Min_cycle;Max_cycle;Signal;HPM_P1;HPM_P2
2021/12/02 00:31:47;;;;;;;17.30;11.83;;;;;;;2.06;78.71;93983.32;823821;71;32879;-78
2021/12/02 02:01:36;;;;;;;19.80;13.45;;;;;;;1.50;80.27;93960.34;834739;71;32727;-77
2021/12/02 03:46:58;;;;;;;16.30;11.40;;;;;;;1.27;82.07;93912.30;815657;72;32879;-77
2021/12/02 05:16:52;;;;;;;15.63;12.10;;;;;;;1.75;79.37;93870.57;824612;71;32803;-79
2021/12/02 05:31:15;;;;;;;17.40;11.70;;;;;;;1.94;78.49;93867.07;830273;71;32297;-77
2021/12/02 05:46:08;;;;;;;19.70;14.10;;;;;;;1.99;77.70;93879.28;822692;71;29417;-76
2021/12/02 06:01:15;;;;;;;18.27;13.75;;;;;;;1.94;78.02;93867.59;821875;71;31902;-77
2021/12/02 06:16:15;;;;;;;25.85;16.10;;;;;;;3.07;77.35;93882.36;820869;71;31950;-76
2021/12/02 06:31:08;;;;;;;24.82;15.72;;;;;;;4.86;73.08;93890.52;827245;71;28708;-78
2021/12/02 06:46:08;;;;;;;20.52;17.45;;;;;;;6.17;69.34;93900.38;827611;71;28959;-75
2021/12/02 07:01:09;;;;;;;29.30;20.43;;;;;;;7.69;65.15;93882.42;827696;71;29436;-75
2021/12/02 07:16:16;;;;;;;26.27;20.37;;;;;;;6.90;63.25;93871.75;828254;71;31726;-78
2021/12/02 07:31:11;;;;;;;40.65;27.45;;;;;;;7.20;63.87;93871.36;832708;71;29257;-76
2021/12/02 07:46:10;;;;;;;34.15;25.85;;;;;;;8.15;58.97;93869.15;833396;71;28353;-75
2021/12/02 08:01:10;;;;;;;28.85;22.50;;;;;;;8.08;59.76;93883.89;832990;71;29752;-77
2021/12/02 08:16:09;;;;;;;19.82;14.80;;;;;;;8.59;57.14;93884.88;827752;71;28701;-78
2021/12/02 08:31:08;;;;;;;11.08;8.95;;;;;;;9.15;56.09;93881.19;832080;71;29237;-78
2021/12/02 08:46:10;;;;;;;10.48;8.80;;;;;;;9.56;53.14;93856.73;833863;71;29256;-81
2021/12/02 09:16:17;;;;;;;11.55;9.48;;;;;;;10.60;48.93;93815.16;833558;71;33105;-76
2021/12/02 09:31:15;;;;;;;11.85;10.20;;;;;;;11.55;47.99;93806.63;831386;71;32702;-81
2021/12/02 09:46:09;;;;;;;9.55;7.62;;;;;;;11.57;47.10;93810.27;828100;71;29420;-76
2021/12/02 10:01:13;;;;;;;11.90;9.45;;;;;;;12.69;44.69;93796.61;823714;71;30355;-76
2021/12/02 10:16:27;;;;;;;13.55;9.95;;;;;;;11.94;44.95;93758.92;821932;71;29830;-79
2021/12/02 10:31:10;;;;;;;16.57;11.33;;;;;;;11.73;45.27;93750.12;827548;71;30213;-78
2021/12/02 10:46:19;;;;;;;13.22;10.50;;;;;;;11.55;45.21;93725.73;827223;71;32590;-77
2021/12/02 11:01:08;;;;;;;15.08;11.40;;;;;;;11.53;46.31;93701.62;824660;70;30715;-78
2021/12/02 11:16:13;;;;;;;12.50;9.30;;;;;;;12.27;44.92;93678.11;819803;71;30943;-78
2021/12/02 11:31:14;;;;;;;11.57;9.43;;;;;;;12.38;44.36;93670.61;826152;71;30602;-76
2021/12/02 11:46:15;;;;;;;13.48;9.65;;;;;;;12.21;44.60;93648.59;826996;71;32751;-75
2021/12/02 12:01:23;;;;;;;13.08;11.20;;;;;;;11.87;46.00;93620.59;827483;71;32794;-77
2021/12/02 12:16:26;;;;;;;14.28;11.55;;;;;;;11.43;46.32;93609.48;833304;71;32725;-76
2021/12/02 12:31:09;;;;;;;12.33;10.23;;;;;;;11.01;47.94;93592.23;826742;71;30416;-75
2021/12/02 12:46:14;;;;;;;14.30;10.55;;;;;;;10.88;48.56;93589.99;824367;70;29926;-75
2021/12/02 13:01:22;;;;;;;12.63;9.43;;;;;;;10.51;49.28;93569.14;816684;71;32709;-75
2021/12/02 13:16:18;;;;;;;12.45;9.75;;;;;;;9.56;52.01;93550.88;832932;71;30198;-77
2021/12/02 13:31:14;;;;;;;14.87;10.00;;;;;;;8.96;53.44;93545.12;825481;71;29768;-76
2021/12/02 13:46:15;;;;;;;13.62;10.48;;;;;;;8.19;56.54;93534.34;826210;71;32804;-78
2021/12/02 14:01:14;;;;;;;15.68;10.78;;;;;;;8.17;57.99;93546.94;828233;71;32736;-77
2021/12/02 14:16:09;;;;;;;15.55;11.08;;;;;;;7.93;58.38;93541.45;833587;71;30239;-75
2021/12/02 14:31:25;;;;;;;18.52;12.45;;;;;;;7.51;60.18;93549.88;829507;71;33547;-79
2021/12/02 14:46:17;;;;;;;16.30;12.82;;;;;;;7.23;62.28;93535.52;819406;71;29546;-77
2021/12/02 15:31:42;;;;;;;15.75;11.18;;;;;;;6.44;65.33;93542.11;820463;71;32990;-78
2021/12/02 16:01:30;;;;;;;16.82;10.93;;;;;;;6.28;66.93;93554.59;833757;71;33848;-81
2021/12/02 19:46:30;;;;;;;;;;;;;;;;;;;;;
2021/12/02 21:16:38;;;;;;;14.43;12.10;;;;;;;5.12;71.19;93467.38;833433;71;32781;-79
